Details From LFKJ - Napoleon Bonaparte
To LFBO - Toulouse Blagnac
Flight Number -
Tags generated
Created
Modified
Stats Distance 347 nm / 642 km
Max Altitude 35,000 ft / 10,668 m
Waypoints 7
Social Downloads 1
Likes 0
Share VATSIM

Download

Looking for another format? Having issues loading an existing format? Contact us
Advertisement - Login to hide

Notes

Basic altitude profile: - Ascent Rate: 2500ft/min - Ascent Speed: 250kts - Cruise Altitude: 35000ft - Cruise Speed: 330kts - Descent Rate: 1500ft/min - Descent Speed: 250kts Options: - Use NATs: yes - Use PACOTS: yes - Use low airways: yes - Use high airways: yes

Route

LFKJ RUBAS Z154 TINOT UM731 DIVKO UT21 BOLSA LFBO

ID Type Via Altitude Latitude Longitude Leg Dist Tot Dist Heading (true) Name
O LFKJ APT - 0 ft / 0 m 41.92289˚ 8.79959˚ - 0 nm - Napoleon Bonaparte
RUBAS FIX - 35,000 ft / 10,668 m 42.37694˚ 6.56889˚ 102 nm 102 nm 286° / 285° -
TINOT FIX Z154 (AWY-LO) 35,000 ft / 10,668 m 42.69778˚ 5.31500˚ 58 nm 161 nm 290° / 289° -
DIVKO FIX UM731 (AWY-HI) 32,700 ft / 9,967 m 43.05611˚ 4.77694˚ 31 nm 193 nm 312° / 312° -
NIVET FIX UT21 (AWY-HI) 25,600 ft / 7,803 m 43.19833˚ 4.04278˚ 33 nm 227 nm 285° / 285° -
BOLSA FIX UT21 (AWY-HI) 18,600 ft / 5,669 m 43.33408˚ 3.31508˚ 32 nm 259 nm 285° / 284° -
O LFBO APT - 0 ft / 0 m 43.62903˚ 1.36397˚ 86 nm 346 nm 282° / 281° Toulouse Blagnac

Altitude Profile

Advertisement - Login to hide

Weather


0- 5 10 15 20 25 30 35+ Temperature / °C

Clouds and Precipitation
Forecast for 2018-08-15 00:00 UTC. Updated 4 hours ago

Ground ~20,000 ft ~40,000 ft Winds

LFKJ

Details ICAO LFKJ (AJA)
Name Napoleon Bonaparte
Region France
Timezone Europe/Paris (UTC+2.0)
Stats Elevation 19 ft / 6 m (AMSL)
Location 41.921724° 8.801090°
Runways 1
Magnetic Variation 2.401° E

METAR

LFKJ 150100Z AUTO 03008KT 360V060 CAVOK 20/16 Q1012 NOSIG

Decode

TAF

TAF LFKJ 142000Z 1421/1521 04005KT 9999 SCT040 SCT100 BECMG 1508/1510 23010KT TEMPO 1513/1516 30015KT

Decode

Departure Runways

ID Width Length Bearing (true/mag) Surface Threshold Overrun Markings Lighting
02 148 ft / 45 m 7,904 ft / 2,409 m 24.84° / 22.44° CONCRETE 0 ft / 0 m 161 ft / 49 m PREC-APP CENTERLINE EDGE THRESHOLD REIL-OMNI
20 148 ft / 45 m 7,904 ft / 2,409 m 204.85° / 202.45° CONCRETE 741 ft / 226 m 230 ft / 70 m PREC-APP CENTERLINE EDGE THRESHOLD REIL-OMNI

LFBO

Details ICAO LFBO (TLS)
Name Toulouse Blagnac
Region France
Timezone Europe/Paris (UTC+2.0)
Stats Elevation 499 ft / 152 m (AMSL)
Location 43.629026° 1.363971°
Runways 2
Magnetic Variation 0.655° E

METAR

LFBO 150100Z AUTO 31004KT CAVOK 18/14 Q1021 NOSIG

Decode

TAF

TAF LFBO 142300Z 1500/1606 30006KT CAVOK= TAF LFCR 142300Z 1500/1524 34005KT CAVOK

Decode

Destination Runways

ID Width Length Bearing (true/mag) Surface Threshold Overrun Markings Lighting
14L 148 ft / 45 m 9,923 ft / 3,025 m 143.00° / 142.35° ASPHALT 0 ft / 0 m 30 ft / 9 m PREC-APP CENTERLINE EDGE THRESHOLD ALSF-I REIL-OMNI
14R 148 ft / 45 m 11,484 ft / 3,500 m 142.99° / 142.34° ASPHALT 0 ft / 0 m 295 ft / 90 m PREC-APP CENTERLINE EDGE THRESHOLD ALSF-II TDZ REIL-OMNI
32L 148 ft / 45 m 11,484 ft / 3,500 m 323.01° / 322.36° ASPHALT 0 ft / 0 m 194 ft / 59 m PREC-APP CENTERLINE EDGE THRESHOLD REIL-OMNI
32R 148 ft / 45 m 9,923 ft / 3,025 m 323.02° / 322.37° ASPHALT 0 ft / 0 m 0 ft / 0 m PREC-APP CENTERLINE EDGE THRESHOLD REIL-OMNI

Approach Navaids

Runway Type Ident Frequency Range Bearing (true/mag) Slope Elevation
14L DME TG 108.90 MHz 18 nm / 33 km - - 528 ft / 161 m (AMSL)
14L LOC-ILS TG 108.90 MHz 18 nm / 33 km 143.02° / 142.36 ° - 494 ft / 151 m (AMSL)
14L GS TG 108.90 MHz 10 nm / 19 km 143.02° / 142.37 ° 3.00° 494 ft / 151 m (AMSL)
14R DME TBS 110.70 MHz 18 nm / 33 km - - 538 ft / 164 m (AMSL)
14R LOC-ILS TBS 110.70 MHz 18 nm / 33 km 143.01° / 142.36 ° - 497 ft / 151 m (AMSL)
14R GS TBS 110.70 MHz 10 nm / 19 km 143.00° / 142.35 ° 3.00° 497 ft / 151 m (AMSL)
32L OM OM - - 323.16° / 322.50 ° - 420 ft / 128 m (AMSL)
32L DME TBN 109.30 MHz 18 nm / 33 km - - 535 ft / 163 m (AMSL)
32L LOC-ILS TBN 109.30 MHz 18 nm / 33 km 322.99° / 322.33 ° - 487 ft / 148 m (AMSL)
32L GS TBN 109.30 MHz 10 nm / 19 km 323.00° / 322.35 ° 3.00° 487 ft / 148 m (AMSL)
32R OM OM - - 322.15° / 321.50 ° - 472 ft / 144 m (AMSL)
32R DME TD 108.35 MHz 18 nm / 33 km - - 554 ft / 169 m (AMSL)
32R LOC-ILS TD 108.35 MHz 18 nm / 33 km 322.70° / 322.04 ° - 486 ft / 148 m (AMSL)
32R GS TD 108.35 MHz 10 nm / 19 km 323.02° / 322.37 ° 3.50° 486 ft / 148 m (AMSL)

Popular Alternatives